sensor_id;sensor_type;location;lat;lon;timestamp;pressure;altitude;pressure_sealevel;temperature;humidity
43161;BME280;40968;52.342;5.528;2023-03-14T00:01:37;98787.25;;;11.05;68.59
43161;BME280;40968;52.342;5.528;2023-03-14T00:04:04;98695.97;;;10.40;68.83
43161;BME280;40968;52.342;5.528;2023-03-14T00:06:31;98685.34;;;10.31;68.85
43161;BME280;40968;52.342;5.528;2023-03-14T00:08:58;98589.56;;;9.67;69.19
43161;BME280;40968;52.342;5.528;2023-03-14T00:11:24;98783.56;;;10.81;69.46
43161;BME280;40968;52.342;5.528;2023-03-14T00:13:52;98806.34;;;10.85;69.71
43161;BME280;40968;52.342;5.528;2023-03-14T00:16:19;98805.31;;;10.78;69.38
43161;BME280;40968;52.342;5.528;2023-03-14T00:18:46;98653.47;;;9.78;69.54
43161;BME280;40968;52.342;5.528;2023-03-14T00:21:13;98825.09;;;10.77;69.04
43161;BME280;40968;52.342;5.528;2023-03-14T00:23:41;98813.69;;;10.75;68.97
43161;BME280;40968;52.342;5.528;2023-03-14T00:26:10;98811.00;;;10.75;68.75
43161;BME280;40968;52.342;5.528;2023-03-14T00:28:37;98734.00;;;10.18;68.55
43161;BME280;40968;52.342;5.528;2023-03-14T00:31:07;98810.84;;;10.76;68.60
43161;BME280;40968;52.342;5.528;2023-03-14T00:33:34;98801.97;;;10.76;68.19
43161;BME280;40968;52.342;5.528;2023-03-14T00:36:03;98802.63;;;10.78;68.26
43161;BME280;40968;52.342;5.528;2023-03-14T00:38:30;98729.19;;;10.29;68.17
43161;BME280;40968;52.342;5.528;2023-03-14T00:40:57;98778.69;;;10.68;68.13
43161;BME280;40968;52.342;5.528;2023-03-14T00:43:24;98760.94;;;10.51;68.16
43161;BME280;40968;52.342;5.528;2023-03-14T00:45:52;98798.97;;;10.79;68.08
43161;BME280;40968;52.342;5.528;2023-03-14T00:48:20;98747.66;;;10.41;67.94
43161;BME280;40968;52.342;5.528;2023-03-14T00:50:47;98766.28;;;10.51;67.91
43161;BME280;40968;52.342;5.528;2023-03-14T00:53:14;98806.34;;;10.77;68.40
43161;BME280;40968;52.342;5.528;2023-03-14T00:55:42;98699.03;;;10.03;68.79
43161;BME280;40968;52.342;5.528;2023-03-14T00:58:09;98673.91;;;9.95;69.00
43161;BME280;40968;52.342;5.528;2023-03-14T01:00:36;98751.16;;;10.41;68.98
43161;BME280;40968;52.342;5.528;2023-03-14T01:03:03;98669.38;;;9.88;69.24
43161;BME280;40968;52.342;5.528;2023-03-14T01:05:32;98701.53;;;10.04;69.30
43161;BME280;40968;52.342;5.528;2023-03-14T01:07:58;98720.44;;;10.03;69.43
43161;BME280;40968;52.342;5.528;2023-03-14T01:10:25;98675.56;;;9.80;69.50
43161;BME280;40968;52.342;5.528;2023-03-14T01:12:52;98795.22;;;10.55;69.80
43161;BME280;40968;52.342;5.528;2023-03-14T01:15:19;98795.56;;;10.52;70.10
43161;BME280;40968;52.342;5.528;2023-03-14T01:17:46;98720.44;;;10.03;69.96
43161;BME280;40968;52.342;5.528;2023-03-14T01:20:14;98729.81;;;10.07;69.77
43161;BME280;40968;52.342;5.528;2023-03-14T01:22:43;98742.19;;;10.08;69.50
43161;BME280;40968;52.342;5.528;2023-03-14T01:25:12;98676.63;;;9.61;69.51
43161;BME280;40968;52.342;5.528;2023-03-14T01:27:39;98813.63;;;10.42;69.69
43161;BME280;40968;52.342;5.528;2023-03-14T01:30:07;98788.94;;;10.30;69.82
43161;BME280;40968;52.342;5.528;2023-03-14T01:32:34;98804.22;;;10.38;70.21
43161;BME280;40968;52.342;5.528;2023-03-14T01:35:00;98791.44;;;10.23;70.54
43161;BME280;40968;52.342;5.528;2023-03-14T01:37:27;98802.50;;;10.28;71.29
43161;BME280;40968;52.342;5.528;2023-03-14T01:39:55;98814.84;;;10.21;71.78
43161;BME280;40968;52.342;5.528;2023-03-14T01:42:22;98696.13;;;9.45;72.86
43161;BME280;40968;52.342;5.528;2023-03-14T01:44:50;98724.25;;;9.57;73.81
43161;BME280;40968;52.342;5.528;2023-03-14T01:47:17;98807.59;;;10.05;74.33
43161;BME280;40968;52.342;5.528;2023-03-14T01:49:45;98811.06;;;9.98;75.24
43161;BME280;40968;52.342;5.528;2023-03-14T01:52:16;98810.88;;;9.91;76.00
43161;BME280;40968;52.342;5.528;2023-03-14T01:54:46;98647.69;;;8.87;76.90
43161;BME280;40968;52.342;5.528;2023-03-14T01:57:17;98814.28;;;9.75;77.65
43161;BME280;40968;52.342;5.528;2023-03-14T01:59:49;98806.19;;;9.67;78.58
43161;BME280;40968;52.342;5.528;2023-03-14T02:02:19;98806.53;;;9.63;78.98
43161;BME280;40968;52.342;5.528;2023-03-14T02:04:46;98796.44;;;9.57;79.24
43161;BME280;40968;52.342;5.528;2023-03-14T02:07:16;98694.81;;;8.96;79.41
43161;BME280;40968;52.342;5.528;2023-03-14T02:09:44;98778.03;;;9.46;79.98
43161;BME280;40968;52.342;5.528;2023-03-14T02:12:12;98724.56;;;9.20;80.03
43161;BME280;40968;52.342;5.528;2023-03-14T02:14:42;98722.94;;;9.09;79.96
43161;BME280;40968;52.342;5.528;2023-03-14T02:17:13;98775.81;;;9.41;79.88
43161;BME280;40968;52.342;5.528;2023-03-14T02:19:53;98676.81;;;8.54;79.94
43161;BME280;40968;52.342;5.528;2023-03-14T02:22:24;98785.66;;;9.41;80.00
43161;BME280;40968;52.342;5.528;2023-03-14T02:24:57;98719.06;;;9.03;79.72
43161;BME280;40968;52.342;5.528;2023-03-14T02:27:27;98720.75;;;9.04;79.85
43161;BME280;40968;52.342;5.528;2023-03-14T02:29:57;98768.25;;;9.37;79.77
43161;BME280;40968;52.342;5.528;2023-03-14T02:32:26;98707.84;;;9.00;79.84
43161;BME280;40968;52.342;5.528;2023-03-14T02:34:56;98789.66;;;9.37;79.64
43161;BME280;40968;52.342;5.528;2023-03-14T02:37:26;98769.91;;;9.38;79.42
43161;BME280;40968;52.342;5.528;2023-03-14T02:39:54;98705.56;;;9.05;79.26
43161;BME280;40968;52.342;5.528;2023-03-14T02:42:21;98760.25;;;9.37;79.36
43161;BME280;40968;52.342;5.528;2023-03-14T02:44:54;98759.22;;;9.38;78.98
43161;BME280;40968;52.342;5.528;2023-03-14T02:47:26;98755.88;;;9.36;79.02
43161;BME280;40968;52.342;5.528;2023-03-14T02:49:59;98753.22;;;9.36;78.89
43161;BME280;40968;52.342;5.528;2023-03-14T02:52:27;98749.84;;;9.34;78.88
43161;BME280;40968;52.342;5.528;2023-03-14T02:54:54;98761.22;;;9.36;78.93
43161;BME280;40968;52.342;5.528;2023-03-14T02:57:21;98742.69;;;9.34;78.69
43161;BME280;40968;52.342;5.528;2023-03-14T02:59:48;98659.34;;;8.86;78.94
43161;BME280;40968;52.342;5.528;2023-03-14T03:02:16;98646.25;;;8.75;78.79
43161;BME280;40968;52.342;5.528;2023-03-14T03:04:43;98739.66;;;9.29;78.77
43161;BME280;40968;52.342;5.528;2023-03-14T03:07:10;98507.72;;;7.83;78.76
43161;BME280;40968;52.342;5.528;2023-03-14T03:09:36;98737.13;;;9.27;79.00
43161;BME280;40968;52.342;5.528;2023-03-14T03:12:03;98684.59;;;8.92;79.11
43161;BME280;40968;52.342;5.528;2023-03-14T03:14:30;98670.66;;;8.80;79.05
43161;BME280;40968;52.342;5.528;2023-03-14T03:16:56;98706.34;;;8.97;79.11
43161;BME280;40968;52.342;5.528;2023-03-14T03:19:24;98684.50;;;8.75;79.33
43161;BME280;40968;52.342;5.528;2023-03-14T03:21:51;98686.06;;;8.86;79.58
43161;BME280;40968;52.342;5.528;2023-03-14T03:24:17;98643.16;;;8.61;79.62
43161;BME280;40968;52.342;5.528;2023-03-14T03:26:44;98725.50;;;9.10;79.50
43161;BME280;40968;52.342;5.528;2023-03-14T03:29:11;98731.03;;;9.17;79.56
43161;BME280;40968;52.342;5.528;2023-03-14T03:31:38;98685.44;;;8.92;79.32
43161;BME280;40968;52.342;5.528;2023-03-14T03:34:04;98647.56;;;8.71;78.98
43161;BME280;40968;52.342;5.528;2023-03-14T03:36:33;98568.91;;;8.21;78.81
43161;BME280;40968;52.342;5.528;2023-03-14T03:39:00;98651.28;;;8.78;78.72
43161;BME280;40968;52.342;5.528;2023-03-14T03:41:26;98499.56;;;7.85;78.38
43161;BME280;40968;52.342;5.528;2023-03-14T03:43:53;98651.13;;;8.79;78.43
43161;BME280;40968;52.342;5.528;2023-03-14T03:46:20;98608.53;;;8.52;78.27
43161;BME280;40968;52.342;5.528;2023-03-14T03:48:46;98637.84;;;8.70;78.48
43161;BME280;40968;52.342;5.528;2023-03-14T03:51:13;98674.59;;;8.94;78.31
43161;BME280;40968;52.342;5.528;2023-03-14T03:53:42;98515.16;;;7.97;78.28
43161;BME280;40968;52.342;5.528;2023-03-14T03:56:09;98744.28;;;9.27;78.42
43161;BME280;40968;52.342;5.528;2023-03-14T03:58:36;98712.97;;;9.11;78.34
43161;BME280;40968;52.342;5.528;2023-03-14T04:01:04;98685.94;;;8.96;78.60
43161;BME280;40968;52.342;5.528;2023-03-14T04:03:31;98725.06;;;9.23;78.56
43161;BME280;40968;52.342;5.528;2023-03-14T04:05:59;98669.88;;;8.88;78.69
43161;BME280;40968;52.342;5.528;2023-03-14T04:08:26;98726.72;;;9.24;78.70
43161;BME280;40968;52.342;5.528;2023-03-14T04:10:55;98673.78;;;8.93;78.67
43161;BME280;40968;52.342;5.528;2023-03-14T04:13:22;98728.41;;;9.25;78.57
43161;BME280;40968;52.342;5.528;2023-03-14T04:15:49;98709.97;;;9.14;78.49
43161;BME280;40968;52.342;5.528;2023-03-14T04:18:16;98721.09;;;9.27;78.51
43161;BME280;40968;52.342;5.528;2023-03-14T04:20:42;98641.91;;;8.74;78.06
43161;BME280;40968;52.342;5.528;2023-03-14T04:23:09;98696.56;;;9.06;78.14
43161;BME280;40968;52.342;5.528;2023-03-14T04:25:36;98650.97;;;8.81;78.19
43161;BME280;40968;52.342;5.528;2023-03-14T04:28:04;98680.94;;;8.93;77.87
43161;BME280;40968;52.342;5.528;2023-03-14T04:30:30;98723.06;;;9.25;78.56
43161;BME280;40968;52.342;5.528;2023-03-14T04:32:57;98733.75;;;9.25;78.99
43161;BME280;40968;52.342;5.528;2023-03-14T04:35:23;98688.50;;;8.98;79.43
43161;BME280;40968;52.342;5.528;2023-03-14T04:37:50;98730.72;;;9.20;79.41
43161;BME280;40968;52.342;5.528;2023-03-14T04:40:17;98670.19;;;8.85;79.68
43161;BME280;40968;52.342;5.528;2023-03-14T04:42:44;98532.84;;;7.99;79.63
43161;BME280;40968;52.342;5.528;2023-03-14T04:45:12;98478.44;;;7.65;79.92
43161;BME280;40968;52.342;5.528;2023-03-14T04:47:40;98692.75;;;8.90;79.48
43161;BME280;40968;52.342;5.528;2023-03-14T04:50:07;98719.66;;;9.15;79.43
43161;BME280;40968;52.342;5.528;2023-03-14T04:52:34;98714.47;;;9.13;79.22
43161;BME280;40968;52.342;5.528;2023-03-14T04:55:01;98468.66;;;7.56;79.06
43161;BME280;40968;52.342;5.528;2023-03-14T04:57:27;98709.97;;;9.14;79.27
43161;BME280;40968;52.342;5.528;2023-03-14T04:59:54;98664.69;;;8.86;79.38
43161;BME280;40968;52.342;5.528;2023-03-14T05:02:22;98671.41;;;8.90;79.88
43161;BME280;40968;52.342;5.528;2023-03-14T05:04:49;98715.31;;;9.14;80.36
43161;BME280;40968;52.342;5.528;2023-03-14T05:07:15;98717.31;;;9.12;80.88
43161;BME280;40968;52.342;5.528;2023-03-14T05:09:42;98712.25;;;9.09;81.04
43161;BME280;40968;52.342;5.528;2023-03-14T05:12:08;98713.28;;;9.08;81.30
43161;BME280;40968;52.342;5.528;2023-03-14T05:14:35;98660.63;;;8.74;81.55
43161;BME280;40968;52.342;5.528;2023-03-14T05:17:02;98702.06;;;9.04;81.60
43161;BME280;40968;52.342;5.528;2023-03-14T05:19:30;98719.06;;;9.03;81.96
43161;BME280;40968;52.342;5.528;2023-03-14T05:21:56;98580.94;;;8.07;81.89
43161;BME280;40968;52.342;5.528;2023-03-14T05:24:23;98623.19;;;8.48;82.66
43161;BME280;40968;52.342;5.528;2023-03-14T05:26:49;98708.19;;;8.96;82.62
43161;BME280;40968;52.342;5.528;2023-03-14T05:29:16;98573.19;;;8.13;83.03
43161;BME280;40968;52.342;5.528;2023-03-14T05:31:43;98547.81;;;7.91;83.23
43161;BME280;40968;52.342;5.528;2023-03-14T05:34:09;98713.16;;;8.91;83.67
43161;BME280;40968;52.342;5.528;2023-03-14T05:36:38;98708.78;;;8.90;83.96
43161;BME280;40968;52.342;5.528;2023-03-14T05:39:04;98672.34;;;8.63;83.92
43161;BME280;40968;52.342;5.528;2023-03-14T05:41:31;98598.94;;;8.23;84.09
43161;BME280;40968;52.342;5.528;2023-03-14T05:43:57;98704.06;;;8.84;84.43
43161;BME280;40968;52.342;5.528;2023-03-14T05:46:24;98617.84;;;8.29;84.71
43161;BME280;40968;52.342;5.528;2023-03-14T05:48:50;98697.38;;;8.80;84.83
43161;BME280;40968;52.342;5.528;2023-03-14T05:51:17;98659.41;;;8.50;84.90
43161;BME280;40968;52.342;5.528;2023-03-14T05:53:45;98702.03;;;8.78;85.13
43161;BME280;40968;52.342;5.528;2023-03-14T05:56:12;98601.34;;;8.16;85.04
43161;BME280;40968;52.342;5.528;2023-03-14T05:58:38;98706.38;;;8.79;85.47
43161;BME280;40968;52.342;5.528;2023-03-14T06:01:06;98708.38;;;8.77;85.31
43161;BME280;40968;52.342;5.528;2023-03-14T06:03:33;98695.00;;;8.77;85.41
43161;BME280;40968;52.342;5.528;2023-03-14T06:05:59;98590.78;;;8.06;85.55
43161;BME280;40968;52.342;5.528;2023-03-14T06:08:26;98652.97;;;8.43;85.54
43161;BME280;40968;52.342;5.528;2023-03-14T06:10:54;98672.63;;;8.52;85.76
43161;BME280;40968;52.342;5.528;2023-03-14T06:13:22;98567.75;;;7.87;85.57
43161;BME280;40968;52.342;5.528;2023-03-14T06:15:49;98659.00;;;8.45;86.09
43161;BME280;40968;52.342;5.528;2023-03-14T06:18:16;98713.72;;;8.77;86.00
43161;BME280;40968;52.342;5.528;2023-03-14T06:20:42;98718.88;;;8.78;86.24
43161;BME280;40968;52.342;5.528;2023-03-14T06:23:09;98736.91;;;8.76;86.30
43161;BME280;40968;52.342;5.528;2023-03-14T06:25:36;98669.97;;;8.42;86.38
43161;BME280;40968;52.342;5.528;2023-03-14T06:28:04;98742.53;;;8.73;86.68
43161;BME280;40968;52.342;5.528;2023-03-14T06:30:31;98732.72;;;8.56;86.97
43161;BME280;40968;52.342;5.528;2023-03-14T06:32:57;98798.41;;;8.67;87.23
43161;BME280;40968;52.342;5.528;2023-03-14T06:35:24;98751.06;;;8.23;85.96
43161;BME280;40968;52.342;5.528;2023-03-14T06:37:51;98814.78;;;8.26;85.09
43161;BME280;40968;52.342;5.528;2023-03-14T06:40:17;98825.84;;;8.03;84.55
43161;BME280;40968;52.342;5.528;2023-03-14T06:42:44;98610.19;;;6.59;84.82
43161;BME280;40968;52.342;5.528;2023-03-14T06:45:12;98842.97;;;7.63;85.11
43161;BME280;40968;52.342;5.528;2023-03-14T06:47:39;98829.78;;;7.52;85.52
43161;BME280;40968;52.342;5.528;2023-03-14T06:50:08;98784.69;;;7.11;85.67
43161;BME280;40968;52.342;5.528;2023-03-14T06:52:35;98844.13;;;7.41;86.02
43161;BME280;40968;52.342;5.528;2023-03-14T06:55:02;98817.38;;;7.13;86.14
43161;BME280;40968;52.342;5.528;2023-03-14T06:57:29;98635.09;;;5.90;85.98
43161;BME280;40968;52.342;5.528;2023-03-14T06:59:55;98805.31;;;6.79;86.29
43161;BME280;40968;52.342;5.528;2023-03-14T07:02:23;98792.56;;;6.73;86.28
43161;BME280;40968;52.342;5.528;2023-03-14T07:04:50;98891.25;;;7.30;86.59
43161;BME280;40968;52.342;5.528;2023-03-14T07:07:17;98837.44;;;6.88;86.34
43161;BME280;40968;52.342;5.528;2023-03-14T07:09:43;98911.19;;;7.26;86.24
43161;BME280;40968;52.342;5.528;2023-03-14T07:12:10;98778.22;;;6.35;85.90
43161;BME280;40968;52.342;5.528;2023-03-14T07:14:36;98923.66;;;7.16;85.58
43161;BME280;40968;52.342;5.528;2023-03-14T07:17:03;98939.22;;;7.11;85.58
43161;BME280;40968;52.342;5.528;2023-03-14T07:19:31;98748.25;;;5.82;85.61
43161;BME280;40968;52.342;5.528;2023-03-14T07:21:57;98908.34;;;6.79;85.93
43161;BME280;40968;52.342;5.528;2023-03-14T07:24:24;98892.56;;;6.56;85.69
43161;BME280;40968;52.342;5.528;2023-03-14T07:26:50;98822.72;;;6.13;85.55
43161;BME280;40968;52.342;5.528;2023-03-14T07:29:17;98953.16;;;6.74;85.32
43161;BME280;40968;52.342;5.528;2023-03-14T07:31:44;98949.22;;;6.68;85.63
43161;BME280;40968;52.342;5.528;2023-03-14T07:34:10;99003.38;;;6.57;85.07
43161;BME280;40968;52.342;5.528;2023-03-14T07:36:38;98965.25;;;6.16;84.58
43161;BME280;40968;52.342;5.528;2023-03-14T07:39:05;98949.47;;;5.82;83.80
43161;BME280;40968;52.342;5.528;2023-03-14T07:41:32;99038.53;;;6.09;83.52
43161;BME280;40968;52.342;5.528;2023-03-14T07:43:58;99018.41;;;5.74;83.80
43161;BME280;40968;52.342;5.528;2023-03-14T07:46:25;99040.41;;;5.64;83.78
43161;BME280;40968;52.342;5.528;2023-03-14T07:48:52;98990.84;;;5.10;83.89
43161;BME280;40968;52.342;5.528;2023-03-14T07:51:18;99101.50;;;5.76;84.16
43161;BME280;40968;52.342;5.528;2023-03-14T07:53:46;99107.84;;;5.63;83.42
43161;BME280;40968;52.342;5.528;2023-03-14T07:56:13;99067.66;;;5.34;84.02
43161;BME280;40968;52.342;5.528;2023-03-14T07:58:39;99119.31;;;5.64;83.72
43161;BME280;40968;52.342;5.528;2023-03-14T08:01:06;99139.97;;;5.60;83.37
43161;BME280;40968;52.342;5.528;2023-03-14T08:03:33;99142.16;;;5.55;83.27
43161;BME280;40968;52.342;5.528;2023-03-14T08:05:59;99150.63;;;5.49;83.36
43161;BME280;40968;52.342;5.528;2023-03-14T08:08:26;99158.72;;;5.36;82.36
43161;BME280;40968;52.342;5.528;2023-03-14T08:10:54;99144.00;;;5.09;81.80
43161;BME280;40968;52.342;5.528;2023-03-14T08:13:20;99200.88;;;5.41;81.63
43161;BME280;40968;52.342;5.528;2023-03-14T08:15:48;99063.97;;;4.46;81.96
43161;BME280;40968;52.342;5.528;2023-03-14T08:18:16;99107.66;;;4.76;82.00
43161;BME280;40968;52.342;5.528;2023-03-14T08:20:43;99224.56;;;5.44;82.38
43161;BME280;40968;52.342;5.528;2023-03-14T08:23:09;99215.59;;;5.34;81.52
43161;BME280;40968;52.342;5.528;2023-03-14T08:25:37;99132.28;;;4.89;81.31
43161;BME280;40968;52.342;5.528;2023-03-14T08:28:05;99177.94;;;5.06;80.70
43161;BME280;40968;52.342;5.528;2023-03-14T08:30:32;99086.41;;;4.53;81.11
43161;BME280;40968;52.342;5.528;2023-03-14T08:32:58;99283.00;;;5.67;80.51
43161;BME280;40968;52.342;5.528;2023-03-14T08:35:25;99292.19;;;5.62;79.09
43161;BME280;40968;52.342;5.528;2023-03-14T08:37:52;99248.22;;;5.24;78.56
43161;BME280;40968;52.342;5.528;2023-03-14T08:40:19;99228.13;;;5.09;78.85
43161;BME280;40968;52.342;5.528;2023-03-14T08:42:46;99309.34;;;5.47;78.47
43161;BME280;40968;52.342;5.528;2023-03-14T08:45:16;99341.38;;;5.57;77.86
43161;BME280;40968;52.342;5.528;2023-03-14T08:47:43;99343.03;;;5.58;77.16
43161;BME280;40968;52.342;5.528;2023-03-14T08:50:12;99356.25;;;5.59;77.49
43161;BME280;40968;52.342;5.528;2023-03-14T08:52:39;99370.25;;;5.61;76.79
43161;BME280;40968;52.342;5.528;2023-03-14T08:55:07;99320.06;;;5.34;77.02
43161;BME280;40968;52.342;5.528;2023-03-14T08:57:34;99383.06;;;5.68;76.36
43161;BME280;40968;52.342;5.528;2023-03-14T09:00:03;99077.78;;;3.80;75.89
43161;BME280;40968;52.342;5.528;2023-03-14T09:02:35;99369.50;;;5.48;76.17
43161;BME280;40968;52.342;5.528;2023-03-14T09:05:02;99247.84;;;4.82;76.54
43161;BME280;40968;52.342;5.528;2023-03-14T09:07:28;99377.50;;;5.59;75.89
43161;BME280;40968;52.342;5.528;2023-03-14T09:09:55;99306.59;;;5.13;75.40
43161;BME280;40968;52.342;5.528;2023-03-14T09:12:22;99412.31;;;5.68;74.62
43161;BME280;40968;52.342;5.528;2023-03-14T09:14:48;99448.72;;;5.90;74.44
43161;BME280;40968;52.342;5.528;2023-03-14T09:17:15;99200.47;;;4.42;74.74
43161;BME280;40968;52.342;5.528;2023-03-14T09:19:43;99459.50;;;6.00;73.88
43161;BME280;40968;52.342;5.528;2023-03-14T09:22:10;99381.31;;;5.44;73.41
43161;BME280;40968;52.342;5.528;2023-03-14T09:24:36;99403.66;;;5.53;72.80
43161;BME280;40968;52.342;5.528;2023-03-14T09:27:03;99316.69;;;4.96;73.12
43161;BME280;40968;52.342;5.528;2023-03-14T09:29:29;99309.09;;;4.92;73.10
43161;BME280;40968;52.342;5.528;2023-03-14T09:31:58;99467.47;;;5.88;72.21
43161;BME280;40968;52.342;5.528;2023-03-14T09:34:24;99524.22;;;6.11;72.05
43161;BME280;40968;52.342;5.528;2023-03-14T09:36:52;99426.25;;;5.47;72.13
43161;BME280;40968;52.342;5.528;2023-03-14T09:39:19;99458.91;;;5.60;71.93
43161;BME280;40968;52.342;5.528;2023-03-14T09:41:47;99393.34;;;5.25;72.33
43161;BME280;40968;52.342;5.528;2023-03-14T09:44:18;99405.38;;;5.18;72.37
43161;BME280;40968;52.342;5.528;2023-03-14T09:46:48;99480.53;;;5.56;71.78
43161;BME280;40968;52.342;5.528;2023-03-14T09:49:20;99448.44;;;5.35;71.28
43161;BME280;40968;52.342;5.528;2023-03-14T09:51:49;99475.34;;;5.54;71.62
43161;BME280;40968;52.342;5.528;2023-03-14T09:54:28;99536.81;;;5.85;71.53
43161;BME280;40968;52.342;5.528;2023-03-14T09:56:56;99238.38;;;4.07;70.68
43161;BME280;40968;52.342;5.528;2023-03-14T09:59:23;99605.16;;;6.20;70.54
43161;BME280;40968;52.342;5.528;2023-03-14T10:01:49;99541.94;;;5.40;69.42
43161;BME280;40968;52.342;5.528;2023-03-14T10:04:21;99653.09;;;5.83;70.82
43161;BME280;40968;52.342;5.528;2023-03-14T10:06:48;99659.00;;;5.62;71.92
43161;BME280;40968;52.342;5.528;2023-03-14T10:09:19;99601.53;;;5.11;71.28
43161;BME280;40968;52.342;5.528;2023-03-14T10:11:54;99605.25;;;5.09;71.84
43161;BME280;40968;52.342;5.528;2023-03-14T10:14:32;99675.63;;;5.53;71.89
43161;BME280;40968;52.342;5.528;2023-03-14T10:17:07;99678.44;;;5.63;71.28
43161;BME280;40968;52.342;5.528;2023-03-14T10:19:35;99688.41;;;5.72;71.74
43161;BME280;40968;52.342;5.528;2023-03-14T10:22:03;99637.78;;;5.50;70.01
43161;BME280;40968;52.342;5.528;2023-03-14T10:24:31;99575.59;;;5.15;69.72
43161;BME280;40968;52.342;5.528;2023-03-14T10:27:02;99606.34;;;5.30;69.36
43161;BME280;40968;52.342;5.528;2023-03-14T10:29:29;99484.84;;;4.60;69.28
43161;BME280;40968;52.342;5.528;2023-03-14T10:31:59;99692.47;;;5.78;67.73
43161;BME280;40968;52.342;5.528;2023-03-14T10:34:28;99510.78;;;4.68;66.67
43161;BME280;40968;52.342;5.528;2023-03-14T10:36:57;99729.34;;;5.82;64.82
43161;BME280;40968;52.342;5.528;2023-03-14T10:39:33;99692.53;;;5.52;63.87
43161;BME280;40968;52.342;5.528;2023-03-14T10:42:13;99735.19;;;5.75;64.58
43161;BME280;40968;52.342;5.528;2023-03-14T10:44:41;99799.28;;;6.09;64.78
43161;BME280;40968;52.342;5.528;2023-03-14T10:47:16;99801.00;;;6.10;63.98
43161;BME280;40968;52.342;5.528;2023-03-14T10:49:44;99709.53;;;5.50;64.24
43161;BME280;40968;52.342;5.528;2023-03-14T10:52:20;99828.41;;;6.23;62.83
43161;BME280;40968;52.342;5.528;2023-03-14T10:54:49;99836.00;;;6.17;61.46
43161;BME280;40968;52.342;5.528;2023-03-14T10:57:21;99791.44;;;5.81;62.64
43161;BME280;40968;52.342;5.528;2023-03-14T10:59:48;99742.84;;;5.42;60.71
43161;BME280;40968;52.342;5.528;2023-03-14T11:02:31;99859.28;;;6.26;60.02
43161;BME280;40968;52.342;5.528;2023-03-14T11:05:10;99890.16;;;6.66;60.43
43161;BME280;40968;52.342;5.528;2023-03-14T11:07:40;99903.34;;;6.91;59.26
43161;BME280;40968;52.342;5.528;2023-03-14T11:10:19;99895.47;;;6.90;58.88
43161;BME280;40968;52.342;5.528;2023-03-14T11:12:56;99803.06;;;6.55;58.86
43161;BME280;40968;52.342;5.528;2023-03-14T11:15:34;99865.66;;;6.85;56.78
43161;BME280;40968;52.342;5.528;2023-03-14T11:18:20;99828.78;;;6.43;55.96
43161;BME280;40968;52.342;5.528;2023-03-14T11:20:52;99880.03;;;6.71;57.41
43161;BME280;40968;52.342;5.528;2023-03-14T11:23:21;99958.50;;;7.26;53.91
43161;BME280;40968;52.342;5.528;2023-03-14T11:25:54;99947.09;;;7.24;52.38
43161;BME280;40968;52.342;5.528;2023-03-14T11:28:29;99961.28;;;7.25;53.36
43161;BME280;40968;52.342;5.528;2023-03-14T11:31:04;99963.09;;;7.24;54.11
43161;BME280;40968;52.342;5.528;2023-03-14T11:33:38;99915.53;;;7.07;53.75
43161;BME280;40968;52.342;5.528;2023-03-14T11:36:07;99798.41;;;6.21;50.50
43161;BME280;40968;52.342;5.528;2023-03-14T11:38:38;99902.91;;;6.97;48.14
43161;BME280;40968;52.342;5.528;2023-03-14T11:41:11;99887.25;;;6.93;47.64
43161;BME280;40968;52.342;5.528;2023-03-14T11:43:47;99945.00;;;7.41;48.40
43161;BME280;40968;52.342;5.528;2023-03-14T11:46:17;100019.53;;;7.67;48.51
43161;BME280;40968;52.342;5.528;2023-03-14T11:48:48;100030.00;;;7.57;49.11
43161;BME280;40968;52.342;5.528;2023-03-14T11:51:23;99821.56;;;6.08;51.00
43161;BME280;40968;52.342;5.528;2023-03-14T11:53:57;100036.53;;;7.77;51.35
43161;BME280;40968;52.342;5.528;2023-03-14T11:56:29;100007.56;;;7.48;52.24
43161;BME280;40968;52.342;5.528;2023-03-14T11:59:04;100018.25;;;7.48;51.09
43161;BME280;40968;52.342;5.528;2023-03-14T12:01:44;100057.91;;;7.88;50.59
43161;BME280;40968;52.342;5.528;2023-03-14T12:04:15;99822.56;;;6.55;47.97
43161;BME280;40968;52.342;5.528;2023-03-14T12:06:47;99984.28;;;7.74;49.00
43161;BME280;40968;52.342;5.528;2023-03-14T12:09:15;100078.47;;;8.10;48.60
43161;BME280;40968;52.342;5.528;2023-03-14T12:11:47;100059.38;;;7.92;48.61
43161;BME280;40968;52.342;5.528;2023-03-14T12:14:22;99960.31;;;7.02;49.28
43161;BME280;40968;52.342;5.528;2023-03-14T12:16:53;100096.38;;;7.73;49.26
43161;BME280;40968;52.342;5.528;2023-03-14T12:19:28;100089.38;;;7.72;47.75
43161;BME280;40968;52.342;5.528;2023-03-14T12:22:00;100070.06;;;7.44;47.23
43161;BME280;40968;52.342;5.528;2023-03-14T12:24:29;100109.59;;;7.50;47.83
43161;BME280;40968;52.342;5.528;2023-03-14T12:26:59;100086.88;;;7.57;47.26
43161;BME280;40968;52.342;5.528;2023-03-14T12:29:27;100070.00;;;7.81;45.18
43161;BME280;40968;52.342;5.528;2023-03-14T12:32:20;100125.22;;;8.27;45.60
43161;BME280;40968;52.342;5.528;2023-03-14T12:34:48;100053.31;;;8.02;45.67
43161;BME280;40968;52.342;5.528;2023-03-14T12:37:33;100136.41;;;8.33;43.65
43161;BME280;40968;52.342;5.528;2023-03-14T12:40:13;100131.50;;;8.15;44.20
43161;BME280;40968;52.342;5.528;2023-03-14T12:42:56;100135.41;;;8.22;44.10
43161;BME280;40968;52.342;5.528;2023-03-14T12:45:27;100080.72;;;7.92;44.93
43161;BME280;40968;52.342;5.528;2023-03-14T12:48:00;100052.34;;;7.91;44.08
43161;BME280;40968;52.342;5.528;2023-03-14T12:50:35;100147.72;;;8.72;45.97
43161;BME280;40968;52.342;5.528;2023-03-14T12:56:32;100111.53;;;8.79;45.21
43161;BME280;40968;52.342;5.528;2023-03-14T12:59:13;100133.63;;;9.04;43.71
43161;BME280;40968;52.342;5.528;2023-03-14T13:01:53;100150.31;;;9.19;43.28
43161;BME280;40968;52.342;5.528;2023-03-14T13:04:27;100191.63;;;9.37;42.52
43161;BME280;40968;52.342;5.528;2023-03-14T13:06:55;100198.16;;;9.22;41.84
43161;BME280;40968;52.342;5.528;2023-03-14T13:09:52;100204.38;;;9.34;42.09
43161;BME280;40968;52.342;5.528;2023-03-14T13:12:25;100084.56;;;8.59;43.98
43161;BME280;40968;52.342;5.528;2023-03-14T13:14:58;100161.84;;;9.19;42.79
43161;BME280;40968;52.342;5.528;2023-03-14T13:17:30;100164.78;;;9.27;41.44
43161;BME280;40968;52.342;5.528;2023-03-14T13:20:00;100090.63;;;8.84;42.50